createdAt,value
2018-07-15T00:00:29.235Z,65.12
2018-07-15T00:02:57.533Z,65.18
2018-07-15T00:05:25.905Z,65.07
2018-07-15T00:07:54.244Z,65.54
2018-07-15T00:10:22.654Z,65.13
2018-07-15T00:12:51.059Z,66.15
2018-07-15T00:15:19.387Z,66.93
2018-07-15T00:17:47.699Z,67.05
2018-07-15T00:20:16.085Z,67.20
2018-07-15T00:22:44.381Z,68.42
2018-07-15T00:25:12.759Z,68.20
2018-07-15T00:27:41.129Z,69.00
2018-07-15T00:30:09.462Z,69.01
2018-07-15T00:32:37.767Z,69.82
2018-07-15T00:35:06.112Z,69.97
2018-07-15T00:37:34.412Z,70.29
2018-07-15T00:40:02.824Z,70.40
2018-07-15T00:42:31.197Z,70.40
2018-07-15T00:44:59.507Z,70.91
2018-07-15T00:47:27.955Z,70.99
2018-07-15T00:49:56.278Z,71.04
2018-07-15T00:52:24.610Z,71.77
2018-07-15T00:54:52.953Z,71.30
2018-07-15T00:57:21.364Z,71.10
2018-07-15T00:59:49.694Z,71.32
2018-07-15T01:02:18.064Z,70.99
2018-07-15T01:04:46.387Z,70.65
2018-07-15T01:07:14.704Z,70.64
2018-07-15T01:09:43.037Z,70.29
2018-07-15T01:12:11.365Z,70.46
2018-07-15T01:14:39.698Z,70.72
2018-07-15T01:17:08.108Z,69.87
2018-07-15T01:19:36.574Z,70.55
2018-07-15T01:22:04.915Z,70.79
2018-07-15T01:24:33.256Z,70.33
2018-07-15T01:27:01.569Z,70.17
2018-07-15T01:29:29.908Z,70.27
2018-07-15T01:31:58.276Z,70.79
2018-07-15T01:34:26.577Z,70.49
2018-07-15T01:36:54.896Z,70.54
2018-07-15T01:39:23.234Z,70.89
2018-07-15T01:41:51.524Z,69.97
2018-07-15T01:44:19.953Z,70.24
2018-07-15T01:46:48.278Z,71.21
2018-07-15T01:49:16.577Z,70.57
2018-07-15T01:51:44.954Z,71.02
2018-07-15T01:54:13.322Z,70.57
2018-07-15T01:56:41.660Z,70.81
2018-07-15T01:59:09.991Z,71.24
2018-07-15T02:01:38.322Z,70.43
2018-07-15T02:04:06.693Z,70.68
2018-07-15T02:06:35.004Z,70.71
2018-07-15T02:09:03.518Z,71.31
2018-07-15T02:11:31.849Z,70.55
2018-07-15T02:14:00.190Z,70.75
2018-07-15T02:16:28.531Z,71.04
2018-07-15T02:18:56.890Z,71.68
2018-07-15T02:21:25.201Z,72.48
2018-07-15T02:23:53.497Z,72.45
2018-07-15T02:26:22.035Z,73.21
2018-07-15T02:28:50.393Z,73.41
2018-07-15T02:31:18.787Z,73.42
2018-07-15T02:33:47.161Z,73.71
2018-07-15T02:36:15.573Z,73.82
2018-07-15T02:38:43.923Z,74.04
2018-07-15T02:41:12.292Z,73.72
2018-07-15T02:43:40.628Z,73.28
2018-07-15T02:46:09.176Z,73.25
2018-07-15T02:48:37.501Z,74.22
2018-07-15T02:51:05.869Z,74.17
2018-07-15T02:53:34.219Z,74.66
2018-07-15T02:56:02.544Z,74.70
2018-07-15T02:58:30.889Z,75.24
2018-07-15T03:00:59.212Z,74.65
2018-07-15T03:03:27.546Z,75.14
2018-07-15T03:05:55.900Z,75.77
2018-07-15T03:08:24.243Z,75.73
2018-07-15T03:10:52.591Z,75.52
2018-07-15T03:13:20.979Z,75.83
2018-07-15T03:15:49.319Z,76.18
2018-07-15T03:18:17.671Z,76.72
2018-07-15T03:20:46.144Z,76.78
2018-07-15T03:23:14.525Z,76.28
2018-07-15T03:25:42.864Z,76.63
2018-07-15T03:28:11.240Z,76.09
2018-07-15T03:30:39.581Z,76.47
2018-07-15T03:33:07.909Z,75.84
2018-07-15T03:35:36.480Z,76.59
2018-07-15T03:38:04.932Z,76.03
2018-07-15T03:40:33.272Z,76.79
2018-07-15T03:43:01.630Z,77.33
2018-07-15T03:45:30.063Z,76.90
2018-07-15T03:47:58.421Z,77.64
2018-07-15T03:50:26.817Z,77.47
2018-07-15T03:52:55.144Z,77.73
2018-07-15T03:55:23.491Z,77.13
2018-07-15T03:57:51.829Z,76.29
2018-07-15T04:00:20.214Z,76.30
2018-07-15T04:02:48.545Z,75.94
2018-07-15T04:05:17.002Z,75.89
2018-07-15T04:07:45.321Z,75.42
2018-07-15T04:10:13.692Z,75.57
2018-07-15T04:12:42.036Z,74.79
2018-07-15T04:15:10.371Z,71.73
2018-07-15T04:17:38.711Z,70.60
2018-07-15T04:20:07.060Z,67.89
2018-07-15T04:22:35.438Z,65.54
2018-07-15T04:25:03.781Z,62.54
2018-07-15T04:27:32.112Z,58.80
2018-07-15T04:30:00.445Z,56.91
2018-07-15T04:32:28.798Z,54.25
2018-07-15T04:34:57.111Z,52.32
2018-07-15T04:37:25.460Z,50.23
2018-07-15T04:39:53.777Z,49.93
2018-07-15T04:42:22.109Z,47.87
2018-07-15T04:44:50.424Z,47.11
2018-07-15T04:47:18.772Z,45.72
2018-07-15T04:49:47.057Z,44.66
2018-07-15T04:52:15.380Z,45.17
2018-07-15T04:54:43.760Z,43.47
2018-07-15T04:57:12.057Z,43.36
2018-07-15T04:59:40.389Z,42.20
2018-07-15T05:02:08.751Z,41.93
2018-07-15T05:04:37.167Z,42.01
2018-07-15T05:07:05.502Z,42.00
2018-07-15T05:09:33.805Z,41.49
2018-07-15T05:12:02.145Z,39.81
2018-07-15T05:14:30.469Z,39.97
2018-07-15T05:16:58.822Z,39.73
2018-07-15T05:19:28.007Z,40.25
2018-07-15T05:21:56.344Z,39.03
2018-07-15T05:24:24.669Z,38.93
2018-07-15T05:26:53.220Z,37.89
2018-07-15T05:29:21.770Z,38.27
2018-07-15T05:31:50.102Z,38.60
2018-07-15T05:34:18.546Z,38.26
2018-07-15T05:36:46.948Z,38.34
2018-07-15T05:39:15.300Z,37.93
2018-07-15T05:41:43.630Z,37.59
2018-07-15T05:44:12.032Z,38.38
2018-07-15T05:46:40.319Z,37.64
2018-07-15T05:49:08.669Z,38.28
2018-07-15T05:51:37.041Z,37.78
2018-07-15T05:54:05.407Z,38.34
2018-07-15T05:56:33.728Z,39.31
2018-07-15T05:59:02.117Z,39.17
2018-07-15T06:01:30.457Z,39.54
2018-07-15T06:03:58.781Z,39.92
2018-07-15T06:06:27.151Z,42.23
2018-07-15T06:08:55.443Z,43.28
2018-07-15T06:11:23.880Z,44.46
2018-07-15T06:13:52.224Z,46.47
2018-07-15T06:16:20.562Z,47.29
2018-07-15T06:18:48.923Z,48.11
2018-07-15T06:21:17.219Z,48.71
2018-07-15T06:23:45.561Z,49.27
2018-07-15T06:26:13.913Z,49.52
2018-07-15T06:28:42.302Z,50.20
2018-07-15T06:31:10.620Z,48.52
2018-07-15T06:33:38.939Z,49.37
2018-07-15T06:36:07.249Z,51.48
2018-07-15T06:38:35.604Z,53.06
2018-07-15T06:41:04.005Z,52.21
2018-07-15T06:43:32.331Z,52.54
2018-07-15T06:46:00.656Z,53.13
2018-07-15T06:48:28.993Z,53.66
2018-07-15T06:50:57.431Z,53.88
2018-07-15T06:53:25.872Z,53.74
2018-07-15T06:55:54.203Z,54.34
2018-07-15T06:58:22.732Z,54.89
2018-07-15T07:00:51.167Z,54.98
2018-07-15T07:03:20.045Z,55.64
2018-07-15T07:05:48.449Z,55.69
2018-07-15T07:08:16.862Z,54.88
2018-07-15T07:10:45.188Z,55.41
2018-07-15T07:13:13.597Z,55.54
2018-07-15T07:15:41.940Z,54.67
2018-07-15T07:18:10.353Z,55.27
2018-07-15T07:20:38.731Z,56.18
2018-07-15T07:23:07.172Z,54.82
2018-07-15T07:25:35.710Z,54.84
2018-07-15T07:28:04.063Z,55.73
2018-07-15T07:30:32.776Z,55.12
2018-07-15T07:33:01.144Z,55.99
2018-07-15T07:35:29.507Z,55.52
2018-07-15T07:37:57.974Z,55.51
2018-07-15T07:40:26.319Z,54.51
2018-07-15T07:42:54.795Z,54.72
2018-07-15T07:45:23.138Z,54.90
2018-07-15T07:47:51.472Z,54.93
2018-07-15T07:50:20.001Z,55.31
2018-07-15T07:52:48.326Z,55.91
2018-07-15T07:55:16.643Z,55.08
2018-07-15T07:57:44.970Z,55.97
2018-07-15T08:00:13.308Z,55.07
2018-07-15T08:02:41.687Z,55.28
2018-07-15T08:05:10.013Z,55.14
2018-07-15T08:07:38.429Z,54.86
2018-07-15T08:10:06.714Z,54.67
2018-07-15T08:12:35.056Z,55.26
2018-07-15T08:15:03.404Z,55.47
2018-07-15T08:17:31.743Z,54.99
2018-07-15T08:20:00.154Z,54.32
2018-07-15T08:22:28.533Z,53.17
2018-07-15T08:24:56.823Z,51.96
2018-07-15T08:27:25.157Z,52.82
2018-07-15T08:31:04.619Z,53.20
2018-07-15T08:33:33.020Z,52.69
2018-07-15T08:36:01.385Z,52.79
2018-07-15T08:38:29.800Z,51.65
2018-07-15T08:40:58.155Z,50.89
2018-07-15T08:43:27.214Z,51.05
2018-07-15T08:45:55.581Z,49.83
2018-07-15T08:48:24.068Z,49.42
2018-07-15T08:50:52.394Z,50.54
2018-07-15T08:53:20.887Z,50.72
2018-07-15T08:55:49.244Z,50.53
2018-07-15T08:58:17.576Z,50.85
2018-07-15T09:00:46.091Z,50.21
2018-07-15T09:03:14.428Z,48.80
2018-07-15T09:05:42.769Z,49.31
2018-07-15T09:08:11.094Z,49.75
2018-07-15T09:10:39.452Z,49.41
2018-07-15T09:13:07.781Z,47.59
2018-07-15T09:15:36.157Z,47.43
2018-07-15T09:18:04.586Z,48.43
2018-07-15T09:20:32.943Z,47.11
2018-07-15T09:23:01.342Z,45.98
2018-07-15T09:25:29.704Z,46.54
2018-07-15T09:27:58.055Z,46.83
2018-07-15T09:30:26.338Z,47.30
2018-07-15T09:32:55.103Z,46.83
2018-07-15T09:35:23.454Z,45.86
2018-07-15T09:37:51.882Z,45.27
2018-07-15T09:40:20.282Z,44.52
2018-07-15T09:42:48.626Z,44.69
2018-07-15T09:45:17.120Z,45.42
2018-07-15T09:47:45.445Z,45.98
2018-07-15T09:50:13.860Z,44.37
2018-07-15T09:52:42.287Z,43.10
2018-07-15T09:55:10.784Z,41.20
2018-07-15T09:57:39.385Z,41.29
2018-07-15T10:00:08.708Z,41.45
2018-07-15T10:02:37.089Z,42.22
2018-07-15T10:05:05.401Z,41.09
2018-07-15T10:07:33.837Z,41.46
2018-07-15T10:10:02.127Z,41.31
2018-07-15T10:12:30.422Z,41.19
2018-07-15T10:14:58.712Z,42.12
2018-07-15T10:17:27.026Z,41.62
2018-07-15T10:19:55.385Z,39.62
2018-07-15T10:22:23.712Z,40.43
2018-07-15T10:24:52.038Z,38.50
2018-07-15T10:27:20.363Z,38.43
2018-07-15T10:29:48.693Z,39.35
2018-07-15T10:32:17.052Z,38.08
2018-07-15T10:34:45.401Z,38.32
2018-07-15T10:37:13.713Z,38.24
2018-07-15T10:39:42.123Z,38.97
2018-07-15T10:42:10.416Z,38.75
2018-07-15T10:44:38.809Z,39.32
2018-07-15T10:47:07.098Z,37.54
2018-07-15T10:49:35.426Z,37.38
2018-07-15T10:52:03.698Z,37.05
2018-07-15T10:54:32.105Z,38.04
2018-07-15T10:57:00.445Z,38.54
2018-07-15T10:59:28.756Z,40.54
2018-07-15T11:01:57.078Z,39.21
2018-07-15T11:04:25.373Z,37.57
2018-07-15T11:06:53.710Z,38.02
2018-07-15T11:09:22.022Z,38.00
2018-07-15T11:11:50.350Z,37.85
2018-07-15T11:14:18.762Z,38.49
2018-07-15T11:16:47.077Z,38.05
2018-07-15T11:19:15.383Z,38.58
2018-07-15T11:21:43.691Z,38.16
2018-07-15T11:24:12.039Z,37.47
2018-07-15T11:26:40.356Z,38.77
2018-07-15T11:29:08.727Z,38.61
2018-07-15T11:31:37.109Z,39.50
2018-07-15T11:34:05.588Z,37.58
2018-07-15T11:36:33.948Z,38.09
2018-07-15T11:39:02.358Z,37.76
2018-07-15T11:41:30.666Z,37.63
2018-07-15T11:43:59.000Z,37.43
2018-07-15T11:46:27.507Z,36.45
2018-07-15T11:48:55.947Z,37.94
2018-07-15T11:51:24.273Z,37.96
2018-07-15T11:53:52.616Z,37.91
2018-07-15T11:56:20.949Z,38.39
2018-07-15T11:58:49.293Z,37.32
2018-07-15T12:01:17.650Z,36.28
2018-07-15T12:03:46.897Z,36.15
2018-07-15T12:06:15.230Z,36.15
2018-07-15T12:08:43.630Z,35.63
2018-07-15T12:11:12.053Z,35.65
2018-07-15T12:13:40.286Z,35.75
2018-07-15T12:16:08.623Z,37.22
2018-07-15T12:18:36.986Z,35.19
2018-07-15T12:21:05.259Z,34.37
2018-07-15T12:23:33.574Z,34.15
2018-07-15T12:26:01.930Z,34.58
2018-07-15T12:28:30.254Z,34.30
2018-07-15T12:30:58.563Z,33.54
2018-07-15T12:33:26.902Z,34.02
2018-07-15T12:35:55.202Z,33.57
2018-07-15T12:38:23.604Z,35.15
2018-07-15T12:40:51.906Z,34.07
2018-07-15T12:43:20.275Z,34.30
2018-07-15T12:45:49.579Z,33.38
2018-07-15T12:48:17.876Z,32.77
2018-07-15T12:50:46.244Z,33.00
2018-07-15T12:53:14.569Z,33.00
2018-07-15T12:55:42.929Z,33.24
2018-07-15T12:58:11.241Z,33.05
2018-07-15T13:00:39.619Z,33.47
2018-07-15T13:03:08.161Z,33.22
2018-07-15T13:05:36.486Z,32.39
2018-07-15T13:08:04.793Z,31.92
2018-07-15T13:10:33.126Z,31.79
2018-07-15T13:13:03.560Z,31.46
2018-07-15T13:15:31.932Z,31.86
2018-07-15T13:18:00.225Z,30.73
2018-07-15T13:20:29.537Z,29.63
2018-07-15T13:22:57.857Z,30.57
2018-07-15T13:25:26.216Z,28.81
2018-07-15T13:27:54.540Z,28.83
2018-07-15T13:30:22.900Z,28.08
2018-07-15T13:32:51.199Z,28.19
2018-07-15T13:35:19.522Z,28.31
2018-07-15T13:37:47.961Z,28.25
2018-07-15T13:40:16.303Z,29.17
2018-07-15T13:42:44.598Z,29.51
2018-07-15T13:45:12.922Z,29.86
2018-07-15T13:47:41.263Z,30.19
2018-07-15T13:50:09.608Z,29.59
2018-07-15T13:52:37.933Z,30.05
2018-07-15T13:55:06.395Z,29.37
2018-07-15T13:57:34.712Z,30.27
2018-07-15T14:00:03.316Z,30.28
2018-07-15T14:02:31.708Z,30.52
2018-07-15T14:04:59.999Z,30.74
2018-07-15T14:07:28.352Z,30.89
2018-07-15T14:09:56.711Z,30.46
2018-07-15T14:12:25.090Z,30.46
2018-07-15T14:14:53.404Z,31.85
2018-07-15T14:17:21.747Z,31.61
2018-07-15T14:19:50.070Z,31.36
2018-07-15T14:22:18.404Z,31.14
2018-07-15T14:24:46.772Z,30.58
2018-07-15T14:27:15.076Z,30.79
2018-07-15T14:29:43.375Z,30.36
2018-07-15T14:32:11.655Z,29.71
2018-07-15T14:34:39.972Z,29.44
2018-07-15T14:37:08.295Z,30.05
2018-07-15T14:39:40.017Z,29.70
2018-07-15T14:42:08.409Z,29.29
2018-07-15T14:44:38.359Z,30.02
2018-07-15T14:47:07.105Z,30.33
2018-07-15T14:49:35.635Z,30.38
2018-07-15T14:52:03.959Z,30.73
2018-07-15T14:54:32.295Z,30.64
2018-07-15T14:57:00.715Z,30.48
2018-07-15T14:59:29.013Z,30.37
2018-07-15T15:01:57.439Z,30.60
2018-07-15T15:04:25.743Z,30.39
2018-07-15T15:06:54.081Z,30.86
2018-07-15T15:09:22.660Z,30.90
2018-07-15T15:11:50.954Z,30.73
2018-07-15T15:14:19.307Z,31.18
2018-07-15T15:16:47.644Z,30.85
2018-07-15T15:19:16.064Z,30.65
2018-07-15T15:21:44.412Z,30.58
2018-07-15T15:24:12.779Z,31.04
2018-07-15T15:26:41.093Z,29.75
2018-07-15T15:29:09.449Z,30.28
2018-07-15T15:31:37.766Z,30.10
2018-07-15T15:34:06.095Z,29.76
2018-07-15T15:36:34.433Z,29.33
2018-07-15T15:39:02.798Z,29.49
2018-07-15T15:41:31.124Z,29.51
2018-07-15T15:43:59.558Z,29.56
2018-07-15T15:46:27.909Z,29.69
2018-07-15T15:48:56.204Z,29.59
2018-07-15T15:51:24.580Z,29.42
2018-07-15T15:53:53.005Z,29.34
2018-07-15T15:56:21.322Z,28.87
2018-07-15T15:58:49.650Z,28.30
2018-07-15T16:01:17.953Z,27.79
2018-07-15T16:03:46.299Z,28.96
2018-07-15T16:06:14.636Z,28.54
2018-07-15T16:08:43.000Z,29.01
2018-07-15T16:11:11.295Z,29.59
2018-07-15T16:13:39.654Z,28.79
2018-07-15T16:16:08.172Z,28.43
2018-07-15T16:18:36.454Z,29.16
2018-07-15T16:21:04.782Z,29.51
2018-07-15T16:23:33.074Z,29.33
2018-07-15T16:26:01.468Z,28.63
2018-07-15T16:28:29.776Z,29.09
2018-07-15T16:30:58.126Z,28.37
2018-07-15T16:33:26.400Z,28.80
2018-07-15T16:35:54.751Z,28.58
2018-07-15T16:38:23.152Z,29.34
2018-07-15T16:40:51.480Z,28.49
2018-07-15T16:43:19.951Z,28.60
2018-07-15T16:45:48.274Z,29.16
2018-07-15T16:48:16.659Z,28.46
2018-07-15T16:50:44.977Z,29.60
2018-07-15T16:53:13.313Z,29.01
2018-07-15T16:55:41.627Z,30.01
2018-07-15T16:58:09.953Z,30.07
2018-07-15T17:00:38.300Z,29.90
2018-07-15T17:03:06.723Z,29.32
2018-07-15T17:05:35.056Z,29.45
2018-07-15T17:08:03.397Z,29.85
2018-07-15T17:10:31.713Z,29.47
2018-07-15T17:13:00.001Z,29.86
2018-07-15T17:15:28.323Z,30.04
2018-07-15T17:17:56.635Z,30.90
2018-07-15T17:20:25.000Z,31.27
2018-07-15T17:22:53.299Z,31.15
2018-07-15T17:25:21.618Z,30.86
2018-07-15T17:27:49.984Z,30.80
2018-07-15T17:30:18.297Z,31.22
2018-07-15T17:32:46.804Z,31.29
2018-07-15T17:35:15.152Z,31.17
2018-07-15T17:37:43.540Z,30.30
2018-07-15T17:40:11.882Z,31.20
2018-07-15T17:42:40.245Z,30.83
2018-07-15T17:45:08.636Z,31.00
2018-07-15T17:47:37.025Z,31.22
2018-07-15T17:50:05.343Z,31.71
2018-07-15T17:52:33.644Z,31.48
2018-07-15T17:55:02.042Z,31.58
2018-07-15T17:57:30.382Z,32.85
2018-07-15T17:59:58.650Z,32.74
2018-07-15T18:02:26.965Z,32.62
2018-07-15T18:04:55.276Z,32.27
2018-07-15T18:07:23.554Z,33.37
2018-07-15T18:09:51.861Z,32.50
2018-07-15T18:12:20.197Z,32.99
2018-07-15T18:14:48.590Z,32.58
2018-07-15T18:17:16.943Z,33.17
2018-07-15T18:19:45.603Z,33.01
2018-07-15T18:22:14.030Z,33.43
2018-07-15T18:24:42.558Z,33.09
2018-07-15T18:27:11.241Z,33.34
2018-07-15T18:29:39.547Z,33.45
2018-07-15T18:32:07.912Z,34.39
2018-07-15T18:34:36.362Z,34.53
2018-07-15T18:37:05.106Z,34.77
2018-07-15T18:39:33.443Z,34.67
2018-07-15T18:42:01.890Z,34.93
2018-07-15T18:44:30.239Z,34.33
2018-07-15T18:46:58.590Z,34.75
2018-07-15T18:49:26.897Z,35.08
2018-07-15T18:51:55.262Z,35.20
2018-07-15T18:54:23.660Z,35.56
2018-07-15T18:56:51.978Z,35.62
2018-07-15T18:59:20.299Z,35.79
2018-07-15T19:01:48.631Z,36.71
2018-07-15T19:04:17.008Z,37.20
2018-07-15T19:06:45.608Z,36.78
2018-07-15T19:09:13.967Z,37.90
2018-07-15T19:11:42.351Z,37.41
2018-07-15T19:14:10.687Z,37.65
2018-07-15T19:16:39.068Z,38.60
2018-07-15T19:19:07.604Z,38.25
2018-07-15T19:21:35.933Z,39.08
2018-07-15T19:24:04.282Z,39.33
2018-07-15T19:26:32.609Z,38.82
2018-07-15T19:29:01.058Z,39.39
2018-07-15T19:31:29.484Z,39.76
2018-07-15T19:33:58.082Z,39.44
2018-07-15T19:36:26.475Z,40.24
2018-07-15T19:38:54.994Z,40.30
2018-07-15T19:41:23.343Z,40.88
2018-07-15T19:43:51.692Z,40.91
2018-07-15T19:46:20.132Z,41.15
2018-07-15T19:48:48.475Z,41.86
2018-07-15T19:51:16.775Z,42.14
2018-07-15T19:53:45.142Z,42.30
2018-07-15T19:56:13.521Z,41.59
2018-07-15T19:58:42.041Z,41.79
2018-07-15T20:01:10.518Z,41.90
2018-07-15T20:03:38.773Z,42.08
2018-07-15T20:06:07.216Z,42.54
2018-07-15T20:08:35.563Z,43.09
2018-07-15T20:11:03.923Z,42.68
2018-07-15T20:13:32.274Z,43.20
2018-07-15T20:16:00.639Z,42.76
2018-07-15T20:18:29.138Z,43.11
2018-07-15T20:20:57.492Z,43.22
2018-07-15T20:23:25.956Z,43.94
2018-07-15T20:25:54.269Z,44.09
2018-07-15T20:28:22.623Z,43.70
2018-07-15T20:30:50.926Z,44.46
2018-07-15T20:33:19.252Z,43.89
2018-07-15T20:35:47.930Z,44.30
2018-07-15T20:38:16.337Z,44.88
2018-07-15T20:40:44.748Z,44.70
2018-07-15T20:43:13.362Z,45.12
2018-07-15T20:45:41.800Z,44.65
2018-07-15T20:48:10.209Z,45.43
2018-07-15T20:50:38.701Z,45.80
2018-07-15T20:53:07.065Z,45.97
2018-07-15T20:55:35.436Z,46.20
2018-07-15T20:58:03.825Z,46.57
2018-07-15T21:00:32.197Z,46.68
2018-07-15T21:03:00.615Z,47.38
2018-07-15T21:05:29.054Z,46.97
2018-07-15T21:07:57.434Z,47.05
2018-07-15T21:10:25.808Z,48.53
2018-07-15T21:12:54.646Z,48.29
2018-07-15T21:15:22.990Z,49.32
2018-07-15T21:17:51.416Z,50.24
2018-07-15T21:20:19.806Z,50.79
2018-07-15T21:22:48.140Z,50.30
2018-07-15T21:25:16.523Z,50.67
2018-07-15T21:27:44.847Z,50.66
2018-07-15T21:30:13.191Z,50.27
2018-07-15T21:32:41.548Z,51.16
2018-07-15T21:35:09.848Z,50.79
2018-07-15T21:37:38.186Z,51.13
2018-07-15T21:40:06.522Z,50.74
2018-07-15T21:42:34.966Z,50.76
2018-07-15T21:45:03.326Z,50.71
2018-07-15T21:47:31.654Z,50.96
2018-07-15T21:50:00.112Z,50.54
2018-07-15T21:52:28.610Z,50.95
2018-07-15T21:54:56.988Z,50.26
2018-07-15T21:57:25.334Z,50.39
2018-07-15T21:59:53.684Z,50.64
2018-07-15T22:02:22.002Z,50.94
2018-07-15T22:04:50.404Z,50.27
2018-07-15T22:07:30.017Z,50.77
2018-07-15T22:11:07.147Z,50.77
2018-07-15T22:13:35.465Z,50.25
2018-07-15T22:16:03.918Z,50.70
2018-07-15T22:18:32.214Z,50.62
2018-07-15T22:21:00.589Z,50.21
2018-07-15T22:23:28.925Z,50.94
2018-07-15T22:25:57.315Z,50.67
2018-07-15T22:28:25.660Z,51.67
2018-07-15T22:30:53.946Z,51.94
2018-07-15T22:33:22.250Z,51.87
2018-07-15T22:35:50.671Z,51.91
2018-07-15T22:38:19.041Z,52.66
2018-07-15T22:40:47.415Z,52.48
2018-07-15T22:43:15.740Z,51.83
2018-07-15T22:45:44.035Z,51.74
2018-07-15T22:48:12.469Z,52.39
2018-07-15T22:50:40.820Z,51.84
2018-07-15T22:53:09.136Z,52.15
2018-07-15T22:55:37.421Z,52.09
2018-07-15T22:58:06.024Z,52.45
2018-07-15T23:00:34.354Z,53.50
2018-07-15T23:03:02.694Z,53.85
2018-07-15T23:05:45.717Z,54.68
2018-07-15T23:08:14.168Z,54.91
2018-07-15T23:10:42.534Z,54.80
2018-07-15T23:13:11.561Z,54.73
2018-07-15T23:15:40.235Z,55.44
2018-07-15T23:18:08.688Z,55.26
2018-07-15T23:20:37.891Z,54.80
2018-07-15T23:23:07.120Z,54.71
2018-07-15T23:25:35.611Z,55.78
2018-07-15T23:28:04.620Z,56.13
2018-07-15T23:30:33.772Z,55.92
2018-07-15T23:33:02.478Z,55.40
2018-07-15T23:35:30.926Z,55.45
2018-07-15T23:37:59.293Z,55.13
2018-07-15T23:40:27.632Z,55.82
2018-07-15T23:42:56.828Z,55.54
2018-07-15T23:45:25.924Z,55.26
2018-07-15T23:47:54.689Z,55.23
2018-07-15T23:50:23.132Z,55.67
2018-07-15T23:52:51.616Z,56.08
2018-07-15T23:55:20.021Z,56.29
2018-07-15T23:57:48.494Z,56.21
